Time;durP1;ratioP1;P1;durP2;ratioP2;P2;SDS_P1;SDS_P2;PMS_P1;PMS_P2;Temp;Humidity;BMP_temperature;BMP_pressure;BME280_temperature;BME280_humidity;BME280_pressure;Samples;Min_cycle;Max_cycle;Signal;HPM_P1;HPM_P2
2022/03/31 00:02:16;;;;;;;37.20;17.90;;;;;;;7.35;66.50;98530.85;25101;1313;3026020;-60
2022/03/31 00:04:45;;;;;;;42.40;18.30;;;;;;;7.21;67.41;98535.52;25131;1313;3057441;-63
2022/03/31 00:07:14;;;;;;;44.80;18.80;;;;;;;7.26;67.57;98531.08;25081;1313;3026222;-61
2022/03/31 00:09:59;;;;;;;50.90;19.30;;;;;;;7.06;68.51;98524.96;25082;1312;3055648;-63
2022/03/31 00:12:28;;;;;;;47.60;15.20;;;;;;;7.07;68.64;98524.73;25090;1313;3026846;-61
2022/03/31 00:14:58;;;;;;;37.10;16.20;;;;;;;7.63;67.02;98519.73;25123;1313;3054740;-63
2022/03/31 00:17:29;;;;;;;44.40;18.40;;;;;;;8.01;65.53;98517.59;25057;1313;3026615;-64
2022/03/31 00:19:58;;;;;;;42.80;17.70;;;;;;;8.00;64.96;98513.64;25157;1313;3026810;-63
2022/03/31 00:22:27;;;;;;;42.50;17.30;;;;;;;7.82;65.35;98512.55;25109;1313;3052266;-61
2022/03/31 00:24:56;;;;;;;42.10;18.00;;;;;;;7.75;65.81;98508.12;25091;1313;3026787;-64
2022/03/31 00:27:26;;;;;;;43.40;17.60;;;;;;;7.61;66.18;98507.63;25117;1313;3048353;-62
2022/03/31 00:29:55;;;;;;;44.10;17.50;;;;;;;7.39;67.24;98509.85;25043;1313;3026593;-61
2022/03/31 00:32:24;;;;;;;52.60;18.60;;;;;;;7.34;67.50;98511.39;25063;1313;3026685;-59
2022/03/31 00:34:57;;;;;;;42.90;17.90;;;;;;;7.07;69.30;98512.02;25100;1313;3027701;-61
2022/03/31 00:37:27;;;;;;;41.20;17.50;;;;;;;7.09;69.49;98510.34;25112;1316;3026285;-61
2022/03/31 00:39:56;;;;;;;36.90;17.70;;;;;;;7.02;69.73;98511.10;25066;1313;3054646;-59
2022/03/31 00:42:26;;;;;;;44.70;17.70;;;;;;;6.86;70.54;98508.41;25252;1313;3026421;-57
2022/03/31 00:44:55;;;;;;;36.60;13.60;;;;;;;6.88;70.79;98507.64;25518;1313;3026466;-60
2022/03/31 00:47:24;;;;;;;36.60;13.20;;;;;;;7.35;69.80;98508.39;25481;1313;3026853;-64
2022/03/31 00:49:55;;;;;;;34.40;13.20;;;;;;;7.71;67.97;98506.96;25241;1313;3026351;-61
2022/03/31 00:52:24;;;;;;;37.20;13.80;;;;;;;7.58;68.43;98508.53;25123;1313;3026907;-61
2022/03/31 00:54:53;;;;;;;32.40;14.80;;;;;;;7.51;68.76;98511.56;25066;1313;3055054;-62
2022/03/31 00:57:22;;;;;;;44.20;13.90;;;;;;;7.36;69.52;98516.02;25112;1313;3027729;-60
2022/03/31 00:59:51;;;;;;;38.90;14.90;;;;;;;7.06;70.67;98515.72;25075;1313;3051612;-63
2022/03/31 01:02:21;;;;;;;36.40;14.90;;;;;;;6.89;71.52;98514.88;25047;1313;3029962;-58
2022/03/31 01:04:51;;;;;;;32.80;13.70;;;;;;;6.74;72.50;98519.94;25084;1313;3027737;-61
2022/03/31 01:07:21;;;;;;;38.90;16.20;;;;;;;6.73;72.37;98518.42;25093;1316;3026411;-63
2022/03/31 01:09:51;;;;;;;30.20;11.40;;;;;;;6.55;73.38;98518.79;25081;1313;3026205;-61
2022/03/31 01:12:20;;;;;;;38.40;11.60;;;;;;;7.03;72.25;98520.45;25108;1313;3026872;-59
2022/03/31 01:15:07;;;;;;;31.60;12.20;;;;;;;7.21;71.01;98523.88;25082;1313;3068688;-64
2022/03/31 01:17:39;;;;;;;36.60;13.00;;;;;;;7.10;71.63;98525.09;25075;1312;3049326;-62
2022/03/31 01:20:11;;;;;;;28.70;13.70;;;;;;;6.97;72.06;98530.92;25122;1313;3026193;-64
2022/03/31 01:22:40;;;;;;;33.80;12.40;;;;;;;6.74;73.12;98527.77;25114;1313;3026098;-61
2022/03/31 01:25:10;;;;;;;46.00;14.60;;;;;;;6.65;73.87;98528.48;25107;1315;3026885;-63
2022/03/31 01:27:40;;;;;;;28.80;13.40;;;;;;;6.57;74.53;98528.61;25098;1313;3026838;-64
2022/03/31 01:30:29;;;;;;;25.10;10.50;;;;;;;6.51;75.31;98533.48;25038;1316;3053232;-60
2022/03/31 01:32:59;;;;;;;36.50;11.50;;;;;;;6.91;74.15;98524.11;25109;1312;3026687;-61
2022/03/31 01:35:28;;;;;;;35.70;13.60;;;;;;;7.14;73.20;98521.83;25045;1313;3026228;-63
2022/03/31 01:37:59;;;;;;;31.20;11.20;;;;;;;7.00;73.74;98527.96;25073;1313;3052392;-60
2022/03/31 01:40:28;;;;;;;35.00;13.10;;;;;;;6.80;74.73;98531.42;25156;1313;3026460;-60
2022/03/31 01:42:57;;;;;;;34.40;12.40;;;;;;;6.77;74.96;98525.86;25105;1313;3049678;-60
2022/03/31 01:45:26;;;;;;;43.70;13.40;;;;;;;6.61;75.85;98527.46;25062;1313;3027232;-62
2022/03/31 01:47:56;;;;;;;26.60;10.60;;;;;;;6.66;75.97;98522.29;25158;1313;3056705;-63
2022/03/31 01:50:25;;;;;;;33.80;10.40;;;;;;;7.01;75.27;98521.29;25088;1313;3027518;-62
2022/03/31 01:52:54;;;;;;;32.60;12.40;;;;;;;7.15;74.57;98518.33;25132;1313;3026408;-61
2022/03/31 01:55:24;;;;;;;39.40;11.60;;;;;;;7.02;75.12;98520.30;25054;1313;3058249;-61
2022/03/31 01:57:53;;;;;;;35.90;12.40;;;;;;;6.94;75.84;98519.61;25065;1313;3026664;-63
2022/03/31 02:00:22;;;;;;;30.10;11.80;;;;;;;6.82;76.33;98517.89;25136;1313;3026386;-61
2022/03/31 02:02:52;;;;;;;39.90;13.00;;;;;;;6.71;77.04;98533.19;25150;1313;3056666;-62
2022/03/31 02:05:21;;;;;;;28.10;8.90;;;;;;;6.60;77.85;98526.55;25138;1313;3026911;-59
2022/03/31 02:07:54;;;;;;;38.20;11.80;;;;;;;7.12;76.57;98525.64;25082;1313;3026597;-62
2022/03/31 02:10:43;;;;;;;33.90;12.60;;;;;;;7.35;75.09;98518.98;25111;1313;3056384;-62
2022/03/31 02:13:15;;;;;;;33.00;11.60;;;;;;;7.35;75.24;98513.27;25104;1313;3026741;-61
2022/03/31 02:15:56;;;;;;;36.60;12.50;;;;;;;7.06;76.45;98509.67;25075;1313;3053887;-60
2022/03/31 02:18:25;;;;;;;33.20;12.10;;;;;;;6.96;77.08;98516.38;25089;1313;3027993;-60
2022/03/31 02:20:55;;;;;;;31.10;10.20;;;;;;;6.74;78.21;98519.07;25064;1312;3051984;-61
2022/03/31 02:23:24;;;;;;;36.60;11.10;;;;;;;6.85;78.19;98524.17;25152;1313;3026640;-59
2022/03/31 02:25:53;;;;;;;33.80;11.70;;;;;;;7.14;77.39;98522.20;25138;1313;3026491;-62
2022/03/31 02:28:22;;;;;;;32.70;11.60;;;;;;;7.13;77.15;98524.88;25108;1313;3052270;-62
2022/03/31 02:30:51;;;;;;;31.30;12.10;;;;;;;6.99;77.81;98527.33;25103;1313;3026316;-61
2022/03/31 02:33:20;;;;;;;45.40;13.50;;;;;;;6.93;78.13;98524.36;25111;1313;3058816;-58
2022/03/31 02:35:49;;;;;;;33.70;12.40;;;;;;;6.79;79.01;98522.77;25084;1313;3026672;-61
2022/03/31 02:38:18;;;;;;;28.90;9.30;;;;;;;6.88;79.02;98526.20;25128;1313;3054874;-62
2022/03/31 02:40:47;;;;;;;34.80;10.20;;;;;;;7.40;77.51;98518.73;25103;1312;3026788;-62
2022/03/31 02:43:23;;;;;;;31.30;12.00;;;;;;;7.53;76.64;98519.27;25101;1315;3049303;-64
2022/03/31 02:45:53;;;;;;;29.10;11.10;;;;;;;7.52;76.37;98522.48;25053;1316;3026237;-63
2022/03/31 02:48:22;;;;;;;48.70;12.50;;;;;;;7.46;76.60;98523.21;25091;1313;3058808;-63
2022/03/31 02:50:51;;;;;;;36.50;12.70;;;;;;;7.18;77.75;98527.01;25068;1315;3026801;-62
2022/03/31 02:56:08;;;;;;;41.10;10.90;;;;;;;7.03;78.94;98527.41;25075;1315;3059018;-61
2022/03/31 02:58:38;;;;;;;35.90;11.60;;;;;;;7.39;77.76;98526.09;25094;1315;3026887;-61
2022/03/31 03:01:08;;;;;;;38.40;12.30;;;;;;;7.58;77.04;98530.13;25070;1316;3026429;-63
2022/03/31 03:03:38;;;;;;;40.90;12.40;;;;;;;7.43;77.39;98530.20;25085;1316;3026728;-62
2022/03/31 03:06:07;;;;;;;37.90;13.60;;;;;;;7.31;77.63;98536.84;25046;1316;3027575;-63
2022/03/31 03:08:36;;;;;;;37.60;13.50;;;;;;;7.24;78.29;98533.59;25098;1313;3054754;-62
2022/03/31 03:11:05;;;;;;;34.10;10.90;;;;;;;7.18;78.71;98535.91;25164;1312;3026606;-64
2022/03/31 03:13:35;;;;;;;29.60;11.20;;;;;;;7.55;77.77;98533.98;25054;1313;3049543;-62
2022/03/31 03:16:08;;;;;;;38.40;12.00;;;;;;;7.63;77.09;98537.11;25089;1313;3026320;-59
2022/03/31 03:18:38;;;;;;;39.90;13.50;;;;;;;7.72;76.85;98528.55;25117;1313;3026891;-61
2022/03/31 03:21:07;;;;;;;34.10;13.80;;;;;;;7.63;77.06;98532.58;25124;1313;3026673;-59
2022/03/31 03:23:38;;;;;;;40.60;14.70;;;;;;;7.58;76.82;98541.44;25059;1313;3026726;-62
2022/03/31 03:26:07;;;;;;;42.40;14.10;;;;;;;7.36;77.83;98541.02;25128;1312;3027001;-61
2022/03/31 03:28:37;;;;;;;38.70;11.40;;;;;;;7.25;78.50;98541.95;25074;1313;3027155;-63
2022/03/31 03:31:06;;;;;;;38.90;12.00;;;;;;;7.60;77.54;98534.88;25108;1313;3026452;-60
2022/03/31 03:33:36;;;;;;;36.00;12.90;;;;;;;7.99;75.92;98529.79;25115;1316;3026529;-60
2022/03/31 03:36:10;;;;;;;36.40;13.40;;;;;;;7.72;76.53;98524.70;25084;1313;3026923;-61
2022/03/31 03:38:40;;;;;;;37.20;14.20;;;;;;;7.52;77.42;98531.70;25097;1313;3056037;-60
2022/03/31 03:41:11;;;;;;;40.00;14.30;;;;;;;7.32;78.44;98535.21;25089;1316;3028155;-61
2022/03/31 03:43:40;;;;;;;39.30;14.60;;;;;;;7.41;78.15;98529.61;25115;1313;3026888;-63
2022/03/31 03:46:10;;;;;;;32.80;11.80;;;;;;;7.32;78.53;98532.11;25097;1313;3026812;-63
2022/03/31 03:48:39;;;;;;;34.40;13.50;;;;;;;7.60;77.90;98533.14;25085;1313;3029336;-62
2022/03/31 03:51:10;;;;;;;45.10;13.90;;;;;;;7.84;77.10;98527.09;25141;1313;3027148;-61
2022/03/31 03:53:39;;;;;;;36.40;14.10;;;;;;;7.67;77.13;98522.96;25094;1313;3050383;-62
2022/03/31 03:56:08;;;;;;;49.40;15.60;;;;;;;7.59;77.60;98529.56;25133;1313;3026674;-60
2022/03/31 03:58:37;;;;;;;44.70;16.00;;;;;;;7.51;77.92;98540.84;25083;1313;3055142;-62
2022/03/31 04:01:06;;;;;;;43.60;16.20;;;;;;;7.51;77.98;98541.71;25106;1312;3026040;-63
2022/03/31 04:03:35;;;;;;;34.80;12.60;;;;;;;7.49;78.29;98532.59;25106;1313;3048825;-62
2022/03/31 04:06:04;;;;;;;37.10;13.50;;;;;;;7.85;77.34;98530.20;25121;1313;3026420;-63
2022/03/31 04:08:34;;;;;;;38.20;13.70;;;;;;;8.02;76.47;98531.53;25107;1313;3057712;-62
2022/03/31 04:11:23;;;;;;;36.20;15.50;;;;;;;7.97;76.45;98535.48;25013;1312;3050006;-63
2022/03/31 04:13:53;;;;;;;38.00;14.80;;;;;;;7.80;77.06;98532.56;25102;1313;3026548;-61
2022/03/31 04:16:22;;;;;;;36.00;14.90;;;;;;;7.65;77.86;98540.49;25080;1313;3026272;-63
2022/03/31 04:18:54;;;;;;;46.90;17.50;;;;;;;7.57;78.39;98543.09;25129;1313;3027181;-60
2022/03/31 04:21:36;;;;;;;39.10;13.40;;;;;;;7.79;77.81;98543.08;25082;1313;3051862;-64
2022/03/31 04:24:06;;;;;;;42.40;14.10;;;;;;;8.13;76.44;98537.60;25075;1313;3026146;-64
2022/03/31 04:26:35;;;;;;;37.40;14.10;;;;;;;8.24;75.71;98528.52;25101;1313;3026567;-63
2022/03/31 04:29:08;;;;;;;43.20;15.90;;;;;;;8.19;75.68;98532.86;25070;1313;3050703;-61
2022/03/31 04:31:39;;;;;;;44.00;15.20;;;;;;;8.00;76.51;98526.71;25118;1313;3028273;-61
2022/03/31 04:34:10;;;;;;;43.80;15.10;;;;;;;7.98;76.67;98536.32;25052;1313;3026623;-62
2022/03/31 04:36:39;;;;;;;38.00;12.60;;;;;;;7.94;76.87;98533.58;25057;1313;3026530;-66
2022/03/31 04:39:09;;;;;;;34.50;13.30;;;;;;;8.27;75.96;98521.16;25062;1313;3026770;-58
2022/03/31 04:41:39;;;;;;;30.40;13.80;;;;;;;8.55;74.76;98517.09;25077;1313;3026145;-64
2022/03/31 04:44:09;;;;;;;40.70;13.50;;;;;;;8.72;73.77;98507.52;25073;1313;3055785;-62
2022/03/31 04:46:38;;;;;;;43.60;14.60;;;;;;;8.59;73.83;98509.64;25150;1313;3026623;-60
2022/03/31 04:49:07;;;;;;;30.90;13.70;;;;;;;8.44;74.41;98515.66;25097;1313;3026740;-64
2022/03/31 04:51:36;;;;;;;41.20;15.00;;;;;;;8.31;74.93;98512.52;25106;1313;3058361;-64
2022/03/31 04:54:06;;;;;;;37.80;14.60;;;;;;;8.17;75.44;98521.96;25118;1313;3026778;-64
2022/03/31 04:56:35;;;;;;;39.60;13.60;;;;;;;8.14;76.00;98522.00;25072;1313;3026519;-67
2022/03/31 04:59:04;;;;;;;34.20;12.40;;;;;;;8.47;74.80;98522.13;25123;1313;3026847;-64
2022/03/31 05:01:33;;;;;;;31.10;12.60;;;;;;;8.73;73.57;98524.73;25228;1313;3048892;-61
2022/03/31 05:04:04;;;;;;;43.30;15.00;;;;;;;8.73;73.14;98528.75;25502;1313;3025936;-60
2022/03/31 05:06:33;;;;;;;40.00;14.70;;;;;;;8.41;74.38;98539.25;25513;1313;3027007;-61
2022/03/31 05:09:22;;;;;;;39.20;17.90;;;;;;;8.34;74.93;98546.69;25156;1313;3069839;-61
2022/03/31 05:11:52;;;;;;;40.40;15.50;;;;;;;8.32;75.00;98539.98;25155;1312;3026542;-59
2022/03/31 05:14:22;;;;;;;47.10;14.30;;;;;;;8.22;75.29;98538.23;25123;1313;3026884;-64
2022/03/31 05:17:04;;;;;;;37.80;13.50;;;;;;;8.68;73.92;98534.86;25084;1313;3054035;-62
2022/03/31 05:19:34;;;;;;;34.90;13.90;;;;;;;8.79;72.94;98547.77;25088;1313;3026696;-64
2022/03/31 05:22:04;;;;;;;36.80;14.40;;;;;;;8.69;73.50;98557.48;25135;1313;3026569;-61
2022/03/31 05:24:33;;;;;;;36.00;14.10;;;;;;;8.67;73.47;98558.83;25135;1313;3051938;-66
2022/03/31 05:27:03;;;;;;;32.00;13.90;;;;;;;8.70;73.31;98562.11;25081;1313;3026241;-63
2022/03/31 05:29:34;;;;;;;48.60;15.60;;;;;;;8.52;73.85;98565.28;25112;1313;3051617;-64
2022/03/31 05:32:04;;;;;;;43.90;16.20;;;;;;;8.55;73.90;98563.84;25108;1313;3026430;-63
2022/03/31 05:34:35;;;;;;;32.20;12.00;;;;;;;8.44;74.41;98565.93;25084;1313;3027377;-64
2022/03/31 05:37:05;;;;;;;35.40;11.60;;;;;;;8.88;73.02;98557.80;25147;1313;3026767;-66
2022/03/31 05:39:34;;;;;;;30.10;13.10;;;;;;;9.22;71.44;98561.02;25128;1313;3026757;-63
2022/03/31 05:42:05;;;;;;;38.60;14.60;;;;;;;9.18;71.27;98564.31;25078;1313;3026471;-65
2022/03/31 05:44:34;;;;;;;52.00;14.10;;;;;;;8.96;71.93;98564.39;25146;1313;3026259;-65
2022/03/31 05:47:04;;;;;;;38.70;13.50;;;;;;;8.89;72.04;98566.48;25099;1313;3026616;-61
2022/03/31 05:49:33;;;;;;;40.40;15.00;;;;;;;8.88;72.20;98571.23;25157;1313;3027510;-64
2022/03/31 05:52:03;;;;;;;33.70;14.80;;;;;;;8.89;71.95;98570.12;25054;1313;3026284;-66
2022/03/31 05:54:32;;;;;;;43.80;13.70;;;;;;;8.83;72.18;98572.09;25097;1312;3027426;-63
2022/03/31 05:57:02;;;;;;;39.60;11.70;;;;;;;8.85;72.14;98571.31;25060;1313;3026383;-63
2022/03/31 05:59:32;;;;;;;34.40;11.30;;;;;;;9.37;70.55;98568.80;25176;1312;3026536;-62
2022/03/31 06:02:02;;;;;;;32.70;13.30;;;;;;;9.60;69.11;98568.34;25134;1313;3027640;-66
2022/03/31 06:04:31;;;;;;;41.00;13.60;;;;;;;9.57;68.63;98570.16;25061;1313;3026534;-62
2022/03/31 06:07:01;;;;;;;45.90;16.70;;;;;;;9.37;69.40;98574.54;25104;1313;3026450;-64
2022/03/31 06:09:30;;;;;;;41.10;18.10;;;;;;;9.50;69.13;98574.83;25097;1313;3027977;-62
2022/03/31 06:12:00;;;;;;;44.20;17.20;;;;;;;9.36;69.45;98575.32;25131;1313;3026357;-62
2022/03/31 06:14:30;;;;;;;42.70;16.70;;;;;;;9.34;69.53;98567.02;25108;1312;3026516;-63
2022/03/31 06:16:59;;;;;;;45.60;13.80;;;;;;;9.44;69.01;98563.89;25068;1313;3026455;-62
2022/03/31 06:19:28;;;;;;;34.60;12.50;;;;;;;9.47;68.78;98556.38;25129;1313;3026731;-63
2022/03/31 06:22:16;;;;;;;29.50;12.20;;;;;;;9.49;68.51;98563.52;25118;1313;3059049;-62
2022/03/31 06:24:45;;;;;;;44.40;13.50;;;;;;;9.55;68.51;98556.30;25137;1313;3026427;-66
2022/03/31 06:27:14;;;;;;;32.30;12.60;;;;;;;9.62;68.10;98558.27;25108;1313;3054229;-62
2022/03/31 06:29:46;;;;;;;39.40;12.20;;;;;;;9.67;67.74;98559.66;25132;1313;3027000;-65
2022/03/31 06:32:15;;;;;;;32.90;9.80;;;;;;;9.76;67.37;98556.41;25165;1313;3051764;-64
2022/03/31 06:34:44;;;;;;;33.90;10.60;;;;;;;10.37;65.67;98545.49;25149;1313;3026286;-65
2022/03/31 06:37:17;;;;;;;31.90;10.80;;;;;;;10.66;64.12;98536.56;25116;1315;3051187;-60
2022/03/31 06:39:46;;;;;;;33.10;10.00;;;;;;;10.66;63.87;98550.40;25119;1313;3026793;-63
2022/03/31 06:42:15;;;;;;;36.30;11.10;;;;;;;10.61;63.97;98551.45;25057;1312;3026503;-64
2022/03/31 06:44:44;;;;;;;26.40;10.70;;;;;;;10.50;64.19;98546.46;25126;1313;3050945;-63
2022/03/31 06:47:13;;;;;;;32.30;12.10;;;;;;;10.48;64.07;98549.14;25122;1313;3027048;-62
2022/03/31 06:49:43;;;;;;;34.50;10.30;;;;;;;10.51;63.89;98548.13;25069;1313;3068935;-63
2022/03/31 06:52:12;;;;;;;36.20;11.10;;;;;;;10.50;63.70;98542.83;25113;1313;3026917;-64
2022/03/31 06:54:41;;;;;;;31.80;10.80;;;;;;;10.47;63.90;98537.98;25145;1313;3055141;-62
2022/03/31 06:57:10;;;;;;;46.80;10.90;;;;;;;10.60;63.60;98533.34;25075;1313;3026382;-62
2022/03/31 06:59:40;;;;;;;34.90;10.80;;;;;;;10.62;63.55;98529.98;25118;1313;3053515;-64
2022/03/31 07:02:09;;;;;;;36.90;10.20;;;;;;;10.64;63.30;98531.80;25078;1313;3026702;-62
2022/03/31 07:04:38;;;;;;;37.30;10.60;;;;;;;10.66;63.50;98528.36;25055;1313;3026102;-67
2022/03/31 07:07:08;;;;;;;32.90;9.80;;;;;;;10.67;63.14;98532.79;25153;1312;3026286;-66
2022/03/31 07:09:47;;;;;;;26.60;10.60;;;;;;;10.74;63.06;98536.13;25085;1313;3053686;-61
2022/03/31 07:12:16;;;;;;;37.80;10.10;;;;;;;10.79;62.63;98547.84;25094;1313;3026459;-63
2022/03/31 07:14:46;;;;;;;28.20;8.80;;;;;;;10.88;62.30;98559.58;25119;1313;3056000;-64
2022/03/31 07:17:15;;;;;;;26.90;9.40;;;;;;;11.01;61.90;98543.88;25114;1313;3030685;-61
2022/03/31 07:19:45;;;;;;;37.90;9.30;;;;;;;11.21;61.11;98535.83;25122;1313;3026207;-65
2022/03/31 07:22:15;;;;;;;29.20;8.80;;;;;;;11.22;60.88;98538.42;25085;1313;3026399;-61
2022/03/31 07:24:44;;;;;;;42.10;11.10;;;;;;;11.30;60.55;98547.56;25115;1312;3053098;-61
2022/03/31 07:27:13;;;;;;;30.30;9.00;;;;;;;11.53;59.93;98539.48;25062;1313;3026843;-66
2022/03/31 07:29:42;;;;;;;24.50;9.00;;;;;;;11.77;59.20;98542.34;25110;1313;3054927;-63
2022/03/31 07:32:11;;;;;;;29.30;8.90;;;;;;;11.91;58.77;98540.32;25127;1313;3026133;-61
2022/03/31 07:34:42;;;;;;;39.20;8.00;;;;;;;12.07;58.10;98550.50;25150;1313;3026669;-61
2022/03/31 07:37:11;;;;;;;28.90;7.60;;;;;;;11.99;57.91;98550.36;25072;1313;3026678;-68
2022/03/31 07:39:45;;;;;;;31.30;8.30;;;;;;;12.10;57.68;98545.30;25145;1313;3026411;-65
2022/03/31 07:42:14;;;;;;;;;;;;;;;12.31;57.21;98543.73;25089;1313;3070967;-61
2022/03/31 07:44:45;;;;;;;30.70;8.40;;;;;;;12.38;56.90;98544.93;25079;1313;3026067;-62
2022/03/31 07:47:14;;;;;;;37.30;7.90;;;;;;;12.48;56.56;98549.41;25111;1313;3026361;-65
2022/03/31 07:49:43;;;;;;;21.50;8.20;;;;;;;12.62;55.98;98546.81;25045;1312;3026789;-63
2022/03/31 07:52:12;;;;;;;30.50;9.00;;;;;;;12.57;56.08;98556.33;25093;1316;3048934;-63
2022/03/31 07:54:42;;;;;;;35.90;9.80;;;;;;;12.66;55.70;98547.23;25107;1313;3026143;-64
2022/03/31 07:57:11;;;;;;;28.60;9.60;;;;;;;12.81;55.36;98541.36;25117;1313;3026456;-65
2022/03/31 07:59:42;;;;;;;25.20;8.30;;;;;;;12.98;54.84;98547.45;25117;1313;3051536;-63
2022/03/31 08:02:11;;;;;;;32.80;7.50;;;;;;;13.03;54.69;98546.21;25082;1313;3026450;-64
2022/03/31 08:04:41;;;;;;;24.40;7.90;;;;;;;13.10;54.11;98554.19;25084;1313;3068483;-61
2022/03/31 08:07:10;;;;;;;41.50;8.00;;;;;;;13.13;54.19;98547.65;25099;1313;3027503;-62
2022/03/31 08:09:39;;;;;;;27.30;7.60;;;;;;;13.14;54.03;98545.44;25152;1313;3026457;-62
2022/03/31 08:12:08;;;;;;;41.30;8.10;;;;;;;13.10;53.96;98549.11;25080;1313;3070280;-63
2022/03/31 08:14:55;;;;;;;38.20;8.00;;;;;;;13.26;53.67;98542.98;25137;1313;3049647;-64
2022/03/31 08:17:24;;;;;;;40.70;7.80;;;;;;;13.37;53.09;98540.50;25070;1313;3026991;-62
2022/03/31 08:19:54;;;;;;;33.10;8.30;;;;;;;13.46;53.06;98535.73;25110;1313;3069283;-60
2022/03/31 08:22:26;;;;;;;40.90;8.50;;;;;;;13.53;52.71;98535.98;25111;1313;3026351;-65
2022/03/31 08:24:57;;;;;;;28.60;8.00;;;;;;;13.63;52.35;98544.24;25062;1313;3027372;-63
2022/03/31 08:27:26;;;;;;;31.00;8.90;;;;;;;13.65;52.08;98534.23;25098;1313;3026822;-65
2022/03/31 08:29:53;;;;;;;31.00;8.90;;;;;;;13.86;51.93;98536.61;23992;1313;5306224;-62
2022/03/31 08:32:22;;;;;;;40.10;10.50;;;;;;;14.21;51.11;98535.04;25039;1316;3026214;-65
2022/03/31 08:34:52;;;;;;;28.50;9.20;;;;;;;14.46;50.26;98535.98;25063;1312;3026878;-65
2022/03/31 08:37:21;;;;;;;33.70;7.30;;;;;;;14.63;50.20;98518.01;25102;1313;3028832;-64
2022/03/31 08:39:50;;;;;;;41.70;7.80;;;;;;;14.79;49.47;98522.92;25103;1313;3050712;-64
2022/03/31 08:42:19;;;;;;;35.90;7.00;;;;;;;14.91;48.85;98522.48;25079;1313;3026465;-62
2022/03/31 08:44:52;;;;;;;35.60;8.40;;;;;;;14.97;48.40;98524.96;25097;1313;3055843;-66
2022/03/31 08:47:21;;;;;;;35.70;7.30;;;;;;;15.19;48.17;98528.14;25076;1313;3026653;-63
2022/03/31 08:49:50;;;;;;;37.90;7.20;;;;;;;15.27;47.69;98527.91;25068;1313;3026085;-64
2022/03/31 08:52:19;;;;;;;30.10;7.30;;;;;;;15.18;47.43;98528.61;25114;1316;3052820;-66
2022/03/31 08:54:49;;;;;;;54.10;9.50;;;;;;;15.19;47.72;98521.15;25089;1312;3027542;-65
2022/03/31 08:57:20;;;;;;;44.50;8.80;;;;;;;15.49;47.37;98514.91;25090;1313;3052579;-65
2022/03/31 08:59:49;;;;;;;35.30;7.90;;;;;;;15.72;46.67;98512.14;25122;1313;3025869;-65
2022/03/31 09:02:25;;;;;;;37.00;7.60;;;;;;;15.90;46.56;98508.56;25123;1313;3026500;-64
2022/03/31 09:05:09;;;;;;;40.30;8.10;;;;;;;16.00;46.26;98520.48;25044;1315;3071171;-63
2022/03/31 09:07:52;;;;;;;36.50;7.50;;;;;;;16.07;46.11;98486.92;25202;1315;3026455;-61
2022/03/31 09:10:33;;;;;;;54.40;8.30;;;;;;;16.17;45.82;98500.06;25118;1315;3052269;-60
2022/03/31 09:13:05;;;;;;;34.00;7.10;;;;;;;16.37;45.20;98479.51;25214;1313;3055076;-63
2022/03/31 09:16:00;;;;;;;36.80;8.30;;;;;;;16.38;45.21;98485.98;25098;1313;3059465;-62
2022/03/31 09:18:30;;;;;;;23.20;7.20;;;;;;;16.49;44.77;98466.00;25073;1313;3053001;-62
2022/03/31 09:21:06;;;;;;;37.70;7.80;;;;;;;16.70;44.44;98458.35;25162;1313;3029018;-62
2022/03/31 09:23:46;;;;;;;43.60;7.80;;;;;;;16.69;44.18;98471.14;24999;1316;3050860;-65
2022/03/31 09:26:16;;;;;;;23.70;6.60;;;;;;;16.73;43.97;98451.54;25089;1313;3071555;-61
2022/03/31 09:28:46;;;;;;;21.80;7.10;;;;;;;16.88;43.66;98449.84;25082;1315;3029462;-64
2022/03/31 09:31:21;;;;;;;42.20;7.10;;;;;;;17.09;43.27;98443.08;25112;1314;3026634;-62
2022/03/31 09:33:55;;;;;;;30.90;8.10;;;;;;;17.26;42.61;98453.82;25325;1315;3051922;-62
2022/03/31 09:36:26;;;;;;;35.20;6.80;;;;;;;17.27;42.13;98440.16;25092;1315;3058663;-62
2022/03/31 09:39:13;;;;;;;57.10;7.60;;;;;;;17.24;41.39;98445.56;25152;1314;3026797;-63
2022/03/31 09:41:50;;;;;;;52.50;7.90;;;;;;;17.14;41.56;98449.27;25117;1316;3054757;-63
2022/03/31 09:44:22;;;;;;;49.70;7.40;;;;;;;17.18;41.78;98447.83;25191;1313;3058649;-63
2022/03/31 09:46:51;;;;;;;31.80;8.10;;;;;;;17.24;41.55;98441.85;25039;1313;3026832;-64
2022/03/31 09:49:27;;;;;;;49.80;11.50;;;;;;;17.31;41.05;98431.98;25127;1313;3027039;-66
2022/03/31 09:51:59;;;;;;;34.80;8.70;;;;;;;17.29;40.83;98436.67;25105;1315;3059466;-64
2022/03/31 09:54:29;;;;;;;29.90;8.00;;;;;;;17.22;40.61;98445.08;25091;1316;3026501;-63
2022/03/31 09:57:04;;;;;;;37.70;6.60;;;;;;;17.20;40.55;98432.41;25137;1315;3026520;-64
2022/03/31 09:59:34;;;;;;;31.10;7.00;;;;;;;17.25;40.49;98418.02;25097;1315;3054991;-65
2022/03/31 10:02:04;;;;;;;26.40;7.00;;;;;;;17.36;39.86;98414.01;25117;1315;3026837;-64
2022/03/31 10:04:34;;;;;;;29.60;6.30;;;;;;;17.49;39.58;98436.02;25102;1313;3026558;-63
2022/03/31 10:07:03;;;;;;;55.10;9.30;;;;;;;17.51;39.47;98426.15;25042;1313;3052987;-64
2022/03/31 10:09:34;;;;;;;29.40;7.00;;;;;;;17.59;39.18;98422.48;25039;1314;3027039;-63
2022/03/31 10:12:22;;;;;;;31.60;7.50;;;;;;;17.81;38.81;98409.79;25089;1314;3028120;-63
2022/03/31 10:15:21;;;;;;;36.80;6.80;;;;;;;17.99;38.62;98408.05;25025;1315;3052468;-63
2022/03/31 10:17:50;;;;;;;29.40;6.40;;;;;;;18.02;38.56;98399.48;25104;1313;3052888;-62
2022/03/31 10:20:21;;;;;;;37.70;7.00;;;;;;;17.93;38.62;98412.30;25089;1312;3026390;-63
2022/03/31 10:25:50;;;;;;;32.90;6.80;;;;;;;18.21;37.72;98404.29;25084;1313;3056042;-63
2022/03/31 10:28:21;;;;;;;36.00;6.30;;;;;;;18.07;37.87;98403.90;25107;1316;3026129;-65
2022/03/31 10:30:55;;;;;;;25.50;6.10;;;;;;;18.02;37.32;98401.88;25023;1315;3049709;-64
2022/03/31 10:33:37;;;;;;;48.20;6.20;;;;;;;18.00;37.22;98409.66;25068;1315;3056939;-64
2022/03/31 10:36:12;;;;;;;39.00;7.20;;;;;;;17.87;37.03;98410.75;25102;1313;3052833;-64
2022/03/31 10:38:57;;;;;;;56.40;6.00;;;;;;;17.81;35.94;98408.27;25265;1313;3067374;-63
2022/03/31 10:41:32;;;;;;;44.40;6.50;;;;;;;17.80;35.65;98420.70;25211;1312;3049537;-65
2022/03/31 10:44:13;;;;;;;54.90;6.10;;;;;;;17.77;35.74;98406.68;25125;1313;3052141;-63
2022/03/31 10:46:44;;;;;;;45.60;6.30;;;;;;;17.81;35.60;98422.04;25115;1312;3052407;-65
2022/03/31 10:49:17;;;;;;;40.50;6.00;;;;;;;17.80;35.57;98392.45;25118;1313;3026368;-65
2022/03/31 10:51:46;;;;;;;46.60;6.30;;;;;;;17.84;35.43;98399.19;25126;1313;3049080;-65
2022/03/31 10:54:28;;;;;;;38.40;6.00;;;;;;;18.09;35.01;98381.48;25082;1314;3026600;-63
2022/03/31 10:57:12;;;;;;;48.90;6.30;;;;;;;18.24;34.26;98380.73;25116;1316;3053832;-69
2022/03/31 10:59:48;;;;;;;40.20;5.70;;;;;;;18.53;33.95;98369.19;25174;1313;3069112;-67
2022/03/31 11:02:19;;;;;;;56.60;7.00;;;;;;;18.52;33.29;98381.14;25277;1313;3026309;-68
2022/03/31 11:04:51;;;;;;;53.60;5.90;;;;;;;18.29;33.21;98377.02;25189;1312;3026600;-68
2022/03/31 11:07:22;;;;;;;63.00;6.00;;;;;;;18.36;32.72;98345.48;25236;1313;3027646;-67
2022/03/31 11:10:02;;;;;;;52.30;6.70;;;;;;;18.39;33.04;98370.25;25212;1313;3026754;-68
2022/03/31 11:12:33;;;;;;;36.10;6.20;;;;;;;18.63;32.92;98344.71;25190;1313;3049528;-69
2022/03/31 11:15:08;;;;;;;92.80;8.70;;;;;;;18.83;32.67;98341.95;25272;1313;3026538;-67
2022/03/31 11:17:39;;;;;;;57.80;6.20;;;;;;;18.94;32.44;98331.38;25209;1313;3053408;-69
2022/03/31 11:20:22;;;;;;;51.40;7.50;;;;;;;18.90;32.39;98338.24;25226;1313;3071114;-70
2022/03/31 11:22:54;;;;;;;71.70;7.30;;;;;;;18.92;32.35;98372.23;25205;1313;3026618;-68
2022/03/31 11:25:23;;;;;;;45.70;7.50;;;;;;;19.04;32.04;98345.13;25198;1313;3026817;-66
2022/03/31 11:27:56;;;;;;;64.30;7.30;;;;;;;19.17;32.17;98347.75;25193;1313;3026452;-65
2022/03/31 11:30:30;;;;;;;41.10;6.30;;;;;;;19.25;31.71;98332.41;25281;1316;3026263;-71
2022/03/31 11:33:00;;;;;;;43.80;5.80;;;;;;;19.26;31.74;98346.03;25206;1316;3026479;-67
2022/03/31 11:35:29;;;;;;;62.20;7.30;;;;;;;19.23;31.55;98344.52;25296;1316;3027458;-67